createdAt,value
2023-05-22T00:01:02.320Z,100908.00
2023-05-22T00:02:05.282Z,100906.67
2023-05-22T00:03:08.660Z,100912.65
2023-05-22T00:04:13.472Z,100910.52
2023-05-22T00:05:18.524Z,100909.68
2023-05-22T00:06:22.357Z,100909.98
2023-05-22T00:07:27.512Z,100914.54
2023-05-22T00:08:31.154Z,100913.59
2023-05-22T00:09:34.045Z,100918.95
2023-05-22T00:10:37.351Z,100913.67
2023-05-22T00:11:40.446Z,100911.09
2023-05-22T00:12:43.320Z,100915.01
2023-05-22T00:13:46.591Z,100912.32
2023-05-22T00:14:49.596Z,100908.55
2023-05-22T00:15:53.382Z,100908.94
2023-05-22T00:16:56.496Z,100904.57
2023-05-22T00:17:59.996Z,100908.85
2023-05-22T00:19:03.850Z,100904.66
2023-05-22T00:20:10.786Z,100901.05
2023-05-22T00:21:13.718Z,100905.39
2023-05-22T00:22:17.053Z,100908.92
2023-05-22T00:23:22.093Z,100903.39
2023-05-22T00:24:25.020Z,100896.71
2023-05-22T00:25:27.917Z,100906.70
2023-05-22T00:26:30.837Z,100896.30
2023-05-22T00:27:34.182Z,100901.46
2023-05-22T00:28:37.337Z,100896.00
2023-05-22T00:29:40.241Z,100899.36
2023-05-22T00:30:43.171Z,100901.95
2023-05-22T00:31:46.155Z,100899.02
2023-05-22T00:32:49.106Z,100901.06
2023-05-22T00:33:52.292Z,100902.39
2023-05-22T00:34:55.213Z,100903.45
2023-05-22T00:35:58.248Z,100906.88
2023-05-22T00:37:01.344Z,100902.05
2023-05-22T00:38:07.611Z,100899.96
2023-05-22T00:39:11.406Z,100899.99
2023-05-22T00:40:15.911Z,100896.36
2023-05-22T00:41:19.074Z,100903.45
2023-05-22T00:42:23.045Z,100901.02
2023-05-22T00:43:26.316Z,100908.65
2023-05-22T00:44:29.887Z,100900.96
2023-05-22T00:45:33.132Z,100902.48
2023-05-22T00:46:36.692Z,100902.81
2023-05-22T00:47:41.843Z,100899.52
2023-05-22T00:48:45.308Z,100899.56
2023-05-22T00:49:48.488Z,100903.42
2023-05-22T00:50:53.900Z,100904.52
2023-05-22T00:51:57.216Z,100896.02
2023-05-22T00:53:00.223Z,100900.45
2023-05-22T00:54:05.050Z,100897.77
2023-05-22T00:55:08.970Z,100896.80
2023-05-22T00:56:13.217Z,100900.59
2023-05-22T00:57:17.415Z,100897.14
2023-05-22T00:58:21.950Z,100898.41
2023-05-22T00:59:25.063Z,100895.63
2023-05-22T01:00:28.247Z,100895.63
2023-05-22T01:01:33.825Z,100898.01
2023-05-22T01:02:37.380Z,100896.55
2023-05-22T01:03:45.873Z,100898.52
2023-05-22T01:04:49.973Z,100893.44
2023-05-22T01:05:53.883Z,100900.02
2023-05-22T01:06:56.829Z,100901.93
2023-05-22T01:07:59.869Z,100901.64
2023-05-22T01:09:04.223Z,100905.68
2023-05-22T01:10:07.937Z,100900.73
2023-05-22T01:11:22.292Z,100900.86
2023-05-22T01:12:28.205Z,100899.44
2023-05-22T01:13:50.718Z,100901.92
2023-05-22T01:14:57.670Z,100897.70
2023-05-22T01:16:05.917Z,100897.17
2023-05-22T01:17:35.297Z,100897.49
2023-05-22T01:19:10.718Z,100900.34
2023-05-22T01:20:22.453Z,100900.84
2023-05-22T01:21:37.276Z,100902.16
2023-05-22T01:22:50.100Z,100904.23
2023-05-22T01:24:37.323Z,100900.59
2023-05-22T01:26:14.241Z,100902.01
2023-05-22T01:27:26.372Z,100898.27
2023-05-22T01:28:41.324Z,100900.48
2023-05-22T01:29:54.909Z,100899.05
2023-05-22T01:31:01.318Z,100894.34
2023-05-22T01:32:05.864Z,100897.45
2023-05-22T01:33:10.035Z,100904.42
2023-05-22T01:34:14.693Z,100897.55
2023-05-22T01:35:21.540Z,100902.70
2023-05-22T01:36:31.069Z,100896.99
2023-05-22T01:37:37.254Z,100899.52
2023-05-22T01:38:43.184Z,100901.44
2023-05-22T01:39:47.007Z,100904.52
2023-05-22T01:40:51.235Z,100903.14
2023-05-22T01:41:54.125Z,100902.92
2023-05-22T01:42:57.551Z,100895.70
2023-05-22T01:44:03.567Z,100901.19
2023-05-22T01:45:10.335Z,100902.67
2023-05-22T01:46:14.370Z,100903.66
2023-05-22T01:47:18.221Z,100901.68
2023-05-22T01:48:21.180Z,100903.50
2023-05-22T01:49:24.195Z,100903.20
2023-05-22T01:50:28.025Z,100903.77
2023-05-22T01:51:49.201Z,100903.89
2023-05-22T01:53:16.580Z,100904.37
2023-05-22T01:54:28.387Z,100902.69
2023-05-22T01:55:46.287Z,100901.45
2023-05-22T01:57:07.534Z,100901.60
2023-05-22T01:58:43.085Z,100898.61
2023-05-22T01:59:54.595Z,100899.20
2023-05-22T02:01:01.412Z,100899.77
2023-05-22T02:02:10.730Z,100899.23
2023-05-22T02:03:17.122Z,100900.64
2023-05-22T02:04:22.935Z,100907.91
2023-05-22T02:05:27.794Z,100908.48
2023-05-22T02:06:33.406Z,100908.39
2023-05-22T02:07:39.534Z,100906.23
2023-05-22T02:08:43.293Z,100908.61
2023-05-22T02:09:47.733Z,100907.38
2023-05-22T02:10:52.387Z,100904.91
2023-05-22T02:11:59.913Z,100902.52
2023-05-22T02:13:04.462Z,100906.72
2023-05-22T02:14:09.303Z,100903.77
2023-05-22T02:15:12.391Z,100904.23
2023-05-22T02:16:15.802Z,100903.88
2023-05-22T02:17:18.943Z,100906.25
2023-05-22T02:18:31.796Z,100906.80
2023-05-22T02:19:37.443Z,100903.88
2023-05-22T02:20:41.942Z,100905.35
2023-05-22T02:21:44.873Z,100904.91
2023-05-22T02:22:48.294Z,100903.25
2023-05-22T02:23:51.255Z,100904.66
2023-05-22T02:24:54.420Z,100899.23
2023-05-22T02:25:57.603Z,100899.93
2023-05-22T02:27:01.646Z,100898.85
2023-05-22T02:28:04.895Z,100901.60
2023-05-22T02:29:08.389Z,100902.39
2023-05-22T02:30:12.672Z,100901.73
2023-05-22T02:31:18.427Z,100904.98
2023-05-22T02:32:21.446Z,100901.27
2023-05-22T02:33:24.517Z,100902.27
2023-05-22T02:34:27.737Z,100902.04
2023-05-22T02:35:31.158Z,100901.00
2023-05-22T02:36:34.119Z,100902.11
2023-05-22T02:37:37.281Z,100898.83
2023-05-22T02:38:40.545Z,100899.91
2023-05-22T02:39:43.586Z,100898.78
2023-05-22T02:40:47.236Z,100899.77
2023-05-22T02:41:50.782Z,100896.56
2023-05-22T02:42:53.698Z,100894.36
2023-05-22T02:43:56.824Z,100899.48
2023-05-22T02:44:59.935Z,100894.61
2023-05-22T02:46:02.979Z,100896.25
2023-05-22T02:47:06.717Z,100897.79
2023-05-22T02:48:09.632Z,100895.67
2023-05-22T02:49:12.719Z,100892.61
2023-05-22T02:50:15.706Z,100894.58
2023-05-22T02:51:18.667Z,100897.03
2023-05-22T02:52:22.589Z,100892.27
2023-05-22T02:53:25.540Z,100888.34
2023-05-22T02:54:28.486Z,100893.45
2023-05-22T02:55:31.476Z,100894.45
2023-05-22T02:56:34.945Z,100891.36
2023-05-22T02:57:38.076Z,100891.21
2023-05-22T02:58:41.220Z,100893.20
2023-05-22T02:59:44.602Z,100892.24
2023-05-22T03:00:47.790Z,100884.90
2023-05-22T03:01:51.026Z,100897.67
2023-05-22T03:02:54.073Z,100885.51
2023-05-22T03:03:57.545Z,100889.88
2023-05-22T03:05:00.559Z,100879.23
2023-05-22T03:06:04.396Z,100882.60
2023-05-22T03:07:08.850Z,100880.42
2023-05-22T03:08:12.134Z,100880.03
2023-05-22T03:09:16.144Z,100877.55
2023-05-22T03:10:19.143Z,100878.05
2023-05-22T03:11:22.031Z,100873.46
2023-05-22T03:12:25.036Z,100875.81
2023-05-22T03:13:28.061Z,100878.98
2023-05-22T03:14:31.119Z,100877.05
2023-05-22T03:15:34.290Z,100876.50
2023-05-22T03:16:44.424Z,100872.19
2023-05-22T03:17:47.586Z,100873.06
2023-05-22T03:18:51.770Z,100877.58
2023-05-22T03:19:54.904Z,100873.75
2023-05-22T03:20:57.876Z,100875.48
2023-05-22T03:22:00.908Z,100872.31
2023-05-22T03:23:05.451Z,100871.25
2023-05-22T03:24:08.558Z,100870.66
2023-05-22T03:25:11.783Z,100872.30
2023-05-22T03:26:14.996Z,100872.27
2023-05-22T03:27:18.020Z,100872.83
2023-05-22T03:28:22.639Z,100873.45
2023-05-22T03:29:25.602Z,100874.30
2023-05-22T03:30:28.543Z,100878.30
2023-05-22T03:31:57.699Z,100871.39
2023-05-22T03:33:01.241Z,100879.17
2023-05-22T03:34:05.917Z,100875.77
2023-05-22T03:35:09.914Z,100877.81
2023-05-22T03:36:12.917Z,100872.87
2023-05-22T03:37:16.186Z,100872.14
2023-05-22T03:38:19.567Z,100870.17
2023-05-22T03:39:22.476Z,100873.23
2023-05-22T03:40:45.746Z,100866.46
2023-05-22T03:41:49.776Z,100873.70
2023-05-22T03:42:52.787Z,100867.89
2023-05-22T03:43:55.846Z,100868.55
2023-05-22T03:44:59.159Z,100870.23
2023-05-22T03:46:02.425Z,100877.89
2023-05-22T03:47:05.609Z,100874.79
2023-05-22T03:48:10.762Z,100872.53
2023-05-22T03:49:13.855Z,100877.64
2023-05-22T03:50:16.771Z,100870.39
2023-05-22T03:51:21.698Z,100870.59
2023-05-22T03:52:25.440Z,100873.23
2023-05-22T03:53:29.640Z,100875.39
2023-05-22T03:54:32.593Z,100880.75
2023-05-22T03:55:35.854Z,100873.30
2023-05-22T03:56:39.229Z,100877.41
2023-05-22T03:57:42.290Z,100872.05
2023-05-22T03:58:45.330Z,100877.14
2023-05-22T03:59:48.560Z,100873.07
2023-05-22T04:00:55.756Z,100869.19
2023-05-22T04:02:01.284Z,100878.44
2023-05-22T04:03:04.863Z,100879.27
2023-05-22T04:04:09.666Z,100877.20
2023-05-22T04:05:12.886Z,100875.67
2023-05-22T04:06:16.000Z,100877.35
2023-05-22T04:07:20.392Z,100876.07
2023-05-22T04:08:23.372Z,100874.30
2023-05-22T04:09:32.123Z,100878.05
2023-05-22T04:10:37.625Z,100871.86
2023-05-22T04:11:42.329Z,100875.25
2023-05-22T04:12:45.446Z,100877.19
2023-05-22T04:13:51.134Z,100878.20
2023-05-22T04:14:54.434Z,100875.35
2023-05-22T04:15:57.590Z,100873.13
2023-05-22T04:17:00.703Z,100872.39
2023-05-22T04:18:04.762Z,100870.31
2023-05-22T04:19:09.730Z,100875.41
2023-05-22T04:20:13.282Z,100866.83
2023-05-22T04:21:17.640Z,100873.91
2023-05-22T04:22:22.810Z,100872.25
2023-05-22T04:23:25.893Z,100867.52
2023-05-22T04:24:28.786Z,100872.18
2023-05-22T04:25:34.384Z,100862.81
2023-05-22T04:26:39.946Z,100864.05
2023-05-22T04:27:44.019Z,100860.69
2023-05-22T04:28:47.600Z,100863.52
2023-05-22T04:29:51.232Z,100859.08
2023-05-22T04:30:54.637Z,100863.31
2023-05-22T04:31:57.692Z,100857.00
2023-05-22T04:33:01.786Z,100857.16
2023-05-22T04:34:07.367Z,100851.64
2023-05-22T04:35:12.429Z,100854.36
2023-05-22T04:36:15.854Z,100851.48
2023-05-22T04:37:20.438Z,100854.18
2023-05-22T04:38:26.469Z,100857.28
2023-05-22T04:39:29.574Z,100854.54
2023-05-22T04:40:34.457Z,100854.48
2023-05-22T04:41:37.523Z,100850.08
2023-05-22T04:42:41.289Z,100860.70
2023-05-22T04:43:44.842Z,100854.55
2023-05-22T04:44:48.462Z,100852.77
2023-05-22T04:45:51.643Z,100851.89
2023-05-22T04:46:57.463Z,100850.75
2023-05-22T04:48:02.836Z,100848.87
2023-05-22T04:49:09.157Z,100855.92
2023-05-22T04:50:12.166Z,100859.75
2023-05-22T04:51:15.423Z,100859.71
2023-05-22T04:52:18.442Z,100857.88
2023-05-22T04:53:21.459Z,100861.75
2023-05-22T04:54:24.697Z,100862.52
2023-05-22T04:55:27.572Z,100862.25
2023-05-22T04:56:37.008Z,100858.23
2023-05-22T04:57:41.424Z,100860.35
2023-05-22T04:58:44.401Z,100858.90
2023-05-22T04:59:48.019Z,100860.63
2023-05-22T05:00:52.709Z,100860.08
2023-05-22T05:01:55.773Z,100856.52
2023-05-22T05:03:00.543Z,100849.89
2023-05-22T05:04:04.154Z,100853.60
2023-05-22T05:05:07.390Z,100853.60
2023-05-22T05:06:12.595Z,100855.61
2023-05-22T05:07:17.775Z,100858.23
2023-05-22T05:08:20.954Z,100857.89
2023-05-22T05:09:25.246Z,100860.40
2023-05-22T05:10:28.273Z,100858.66
2023-05-22T05:11:31.188Z,100861.00
2023-05-22T05:12:34.134Z,100858.16
2023-05-22T05:13:37.637Z,100856.64
2023-05-22T05:14:40.589Z,100856.58
2023-05-22T05:15:43.489Z,100859.41
2023-05-22T05:16:51.757Z,100861.63
2023-05-22T05:18:59.168Z,100872.32
2023-05-22T05:20:02.540Z,100870.83
2023-05-22T05:21:05.747Z,100868.58
2023-05-22T05:22:08.677Z,100871.67
2023-05-22T05:23:12.204Z,100874.80
2023-05-22T05:24:16.969Z,100874.17
2023-05-22T05:25:20.605Z,100874.86
2023-05-22T05:26:24.318Z,100879.02
2023-05-22T05:27:27.307Z,100876.04
2023-05-22T05:28:30.427Z,100873.23
2023-05-22T05:29:33.445Z,100875.27
2023-05-22T05:30:41.933Z,100875.23
2023-05-22T05:32:04.388Z,100873.17
2023-05-22T05:33:26.850Z,100871.49
2023-05-22T05:34:38.511Z,100869.89
2023-05-22T05:35:52.864Z,100870.44
2023-05-22T05:37:03.126Z,100870.58
2023-05-22T05:38:07.046Z,100861.80
2023-05-22T05:39:10.698Z,100869.52
2023-05-22T05:40:14.401Z,100869.83
2023-05-22T05:41:23.142Z,100873.66
2023-05-22T05:42:33.152Z,100874.64
2023-05-22T05:43:37.331Z,100871.64
2023-05-22T05:44:43.194Z,100874.43
2023-05-22T05:45:46.458Z,100875.36
2023-05-22T05:46:49.948Z,100879.60
2023-05-22T05:47:54.733Z,100880.38
2023-05-22T05:48:58.561Z,100880.10
2023-05-22T05:50:01.819Z,100878.02
2023-05-22T05:51:06.936Z,100878.71
2023-05-22T05:52:14.125Z,100872.70
2023-05-22T05:53:17.310Z,100869.73
2023-05-22T05:54:26.711Z,100864.71
2023-05-22T05:55:34.553Z,100868.63
2023-05-22T05:56:39.258Z,100872.33
2023-05-22T05:57:42.470Z,100871.94
2023-05-22T05:58:49.793Z,100868.05
2023-05-22T06:00:22.681Z,100872.23
2023-05-22T06:01:27.270Z,100870.48
2023-05-22T06:02:31.363Z,100865.61
2023-05-22T06:03:35.389Z,100865.12
2023-05-22T06:04:48.761Z,100871.64
2023-05-22T06:05:53.847Z,100871.52
2023-05-22T06:07:01.999Z,100872.78
2023-05-22T06:08:21.950Z,100870.70
2023-05-22T06:09:24.996Z,100870.73
2023-05-22T06:11:01.363Z,100867.94
2023-05-22T06:12:13.918Z,100870.95
2023-05-22T06:13:19.969Z,100870.26
2023-05-22T06:14:22.920Z,100867.58
2023-05-22T06:15:25.958Z,100865.90
2023-05-22T06:16:29.932Z,100865.48
2023-05-22T06:17:39.476Z,100866.53
2023-05-22T06:18:42.565Z,100867.08
2023-05-22T06:19:45.741Z,100868.52
2023-05-22T06:20:49.168Z,100867.77
2023-05-22T06:21:52.346Z,100864.84
2023-05-22T06:22:56.543Z,100865.84
2023-05-22T06:23:59.489Z,100862.72
2023-05-22T06:25:05.243Z,100861.72
2023-05-22T06:26:09.114Z,100863.40
2023-05-22T06:27:12.425Z,100864.02
2023-05-22T06:28:15.579Z,100858.50
2023-05-22T06:29:18.864Z,100857.92
2023-05-22T06:30:35.772Z,100860.18
2023-05-22T06:31:43.968Z,100858.05
2023-05-22T06:32:47.032Z,100859.17
2023-05-22T06:33:52.089Z,100860.02
2023-05-22T06:34:55.424Z,100849.29
2023-05-22T06:35:58.732Z,100856.66
2023-05-22T06:37:01.846Z,100856.00
2023-05-22T06:38:07.845Z,100850.02
2023-05-22T06:39:11.168Z,100851.52
2023-05-22T06:40:32.492Z,100857.98
2023-05-22T06:41:48.871Z,100854.27
2023-05-22T06:42:52.770Z,100854.98
2023-05-22T06:44:14.521Z,100858.64
2023-05-22T06:45:20.056Z,100858.48
2023-05-22T06:46:56.324Z,100854.27
2023-05-22T06:48:01.211Z,100856.13
2023-05-22T06:49:04.557Z,100859.29
2023-05-22T06:50:15.254Z,100855.44
2023-05-22T06:51:18.493Z,100857.28
2023-05-22T06:52:24.790Z,100855.23
2023-05-22T06:53:27.795Z,100862.02
2023-05-22T06:54:31.048Z,100858.88
2023-05-22T06:55:34.310Z,100856.81
2023-05-22T06:56:42.526Z,100857.70
2023-05-22T06:57:51.048Z,100848.69
2023-05-22T06:58:54.226Z,100853.14
2023-05-22T06:59:59.318Z,100845.30
2023-05-22T07:01:23.338Z,100848.87
2023-05-22T07:02:36.431Z,100848.96
2023-05-22T07:04:05.199Z,100850.30
2023-05-22T07:05:11.840Z,100846.40
2023-05-22T07:06:25.272Z,100849.48
2023-05-22T07:07:28.224Z,100848.85
2023-05-22T07:08:31.287Z,100851.33
2023-05-22T07:09:35.185Z,100849.09
2023-05-22T07:10:39.376Z,100847.59
2023-05-22T07:11:44.052Z,100849.69
2023-05-22T07:12:48.124Z,100848.95
2023-05-22T07:13:51.248Z,100847.73
2023-05-22T07:14:54.908Z,100846.95
2023-05-22T07:15:59.160Z,100845.06
2023-05-22T07:17:02.216Z,100849.65
2023-05-22T07:18:10.448Z,100848.15
2023-05-22T07:19:16.001Z,100850.27
2023-05-22T07:20:18.987Z,100851.96
2023-05-22T07:21:38.312Z,100852.06
2023-05-22T07:22:41.359Z,100847.06
2023-05-22T07:23:44.292Z,100847.77
2023-05-22T07:24:47.672Z,100849.66
2023-05-22T07:25:52.127Z,100851.41
2023-05-22T07:26:56.846Z,100853.05
2023-05-22T07:28:02.268Z,100843.52
2023-05-22T07:29:06.206Z,100843.44
2023-05-22T07:30:10.229Z,100848.17
2023-05-22T07:31:13.406Z,100848.90
2023-05-22T07:32:16.441Z,100846.48
2023-05-22T07:33:19.666Z,100844.55
2023-05-22T07:34:23.009Z,100843.61
2023-05-22T07:35:26.153Z,100839.35
2023-05-22T07:36:29.407Z,100841.70
2023-05-22T07:37:33.146Z,100843.30
2023-05-22T07:38:36.364Z,100848.58
2023-05-22T07:39:41.423Z,100844.53
2023-05-22T07:40:47.287Z,100842.50
2023-05-22T07:41:50.810Z,100843.40
2023-05-22T07:42:54.164Z,100843.16
2023-05-22T07:43:57.149Z,100848.54
2023-05-22T07:45:03.886Z,100843.02
2023-05-22T07:46:06.932Z,100843.66
2023-05-22T07:47:14.549Z,100842.20
2023-05-22T07:48:17.853Z,100844.38
2023-05-22T07:49:23.723Z,100843.31
2023-05-22T07:50:27.100Z,100838.83
2023-05-22T07:51:30.104Z,100840.14
2023-05-22T07:52:33.206Z,100838.23
2023-05-22T07:53:37.876Z,100841.34
2023-05-22T07:54:45.240Z,100838.80
2023-05-22T07:55:49.284Z,100838.73
2023-05-22T07:56:52.976Z,100837.46
2023-05-22T07:57:57.551Z,100837.15
2023-05-22T07:59:05.820Z,100833.73
2023-05-22T08:00:10.132Z,100836.83
2023-05-22T08:01:18.766Z,100837.58
2023-05-22T08:02:22.677Z,100841.19
2023-05-22T08:03:26.772Z,100838.84
2023-05-22T08:04:30.324Z,100840.00
2023-05-22T08:05:33.405Z,100842.13
2023-05-22T08:06:36.559Z,100838.58
2023-05-22T08:07:39.650Z,100839.09
2023-05-22T08:08:42.869Z,100837.98
2023-05-22T08:09:46.934Z,100836.13
2023-05-22T08:11:03.232Z,100837.56
2023-05-22T08:12:08.021Z,100841.85
2023-05-22T08:13:12.512Z,100836.16
2023-05-22T08:14:15.584Z,100832.25
2023-05-22T08:15:18.547Z,100835.14
2023-05-22T08:16:21.645Z,100837.20
2023-05-22T08:17:24.613Z,100839.19
2023-05-22T08:18:29.419Z,100833.09
2023-05-22T08:19:33.473Z,100830.16
2023-05-22T08:20:38.466Z,100834.02
2023-05-22T08:21:41.797Z,100831.22
2023-05-22T08:22:44.791Z,100835.10
2023-05-22T08:23:47.663Z,100830.98
2023-05-22T08:24:50.591Z,100832.96
2023-05-22T08:25:53.628Z,100830.69
2023-05-22T08:27:01.023Z,100828.64
2023-05-22T08:28:04.232Z,100826.48
2023-05-22T08:29:07.440Z,100824.35
2023-05-22T08:30:10.555Z,100828.38
2023-05-22T08:31:14.978Z,100826.33
2023-05-22T08:32:18.630Z,100828.61
2023-05-22T08:33:21.589Z,100826.83
2023-05-22T08:34:25.232Z,100826.10
2023-05-22T08:35:28.275Z,100826.76
2023-05-22T08:36:34.068Z,100830.23
2023-05-22T08:37:37.401Z,100828.08
2023-05-22T08:38:41.443Z,100831.74
2023-05-22T08:39:44.365Z,100823.14
2023-05-22T08:40:51.485Z,100827.17
2023-05-22T08:41:55.006Z,100824.56
2023-05-22T08:42:58.572Z,100824.88
2023-05-22T08:44:01.688Z,100823.64
2023-05-22T08:45:07.217Z,100824.71
2023-05-22T08:46:10.978Z,100826.04
2023-05-22T08:47:15.410Z,100820.81
2023-05-22T08:48:20.349Z,100821.57
2023-05-22T08:49:24.359Z,100822.32
2023-05-22T08:50:27.569Z,100817.91
2023-05-22T08:51:35.833Z,100823.95
2023-05-22T08:52:50.706Z,100820.95
2023-05-22T08:53:56.826Z,100817.79
2023-05-22T08:55:03.085Z,100815.30
2023-05-22T08:56:07.285Z,100816.33
2023-05-22T08:57:10.738Z,100814.73
2023-05-22T08:58:14.477Z,100817.33
2023-05-22T08:59:18.153Z,100814.87
2023-05-22T09:00:21.702Z,100817.63
2023-05-22T09:01:24.908Z,100819.77
2023-05-22T09:02:28.481Z,100815.68
2023-05-22T09:03:33.320Z,100811.57
2023-05-22T09:04:36.447Z,100814.81
2023-05-22T09:05:40.509Z,100813.86
2023-05-22T09:06:43.527Z,100807.38
2023-05-22T09:07:48.942Z,100807.90
2023-05-22T09:08:52.219Z,100806.95
2023-05-22T09:09:55.921Z,100807.55
2023-05-22T09:10:59.186Z,100804.02
2023-05-22T09:12:02.666Z,100801.46
2023-05-22T09:13:09.588Z,100802.30
2023-05-22T09:14:12.822Z,100804.08
2023-05-22T09:15:16.578Z,100801.70
2023-05-22T09:16:20.775Z,100799.55
2023-05-22T09:17:24.135Z,100799.40
2023-05-22T09:18:29.261Z,100809.86
2023-05-22T09:19:32.804Z,100802.00
2023-05-22T09:20:39.253Z,100794.70
2023-05-22T09:21:43.102Z,100796.85
2023-05-22T09:22:47.439Z,100798.25
2023-05-22T09:23:51.114Z,100794.64
2023-05-22T09:24:54.541Z,100792.34
2023-05-22T09:25:59.418Z,100792.36
2023-05-22T09:27:04.311Z,100789.94
2023-05-22T09:28:07.596Z,100791.82
2023-05-22T09:29:10.676Z,100790.95
2023-05-22T09:30:20.868Z,100788.58
2023-05-22T09:31:24.006Z,100786.52
2023-05-22T09:32:29.926Z,100781.87
2023-05-22T09:33:33.353Z,100781.71
2023-05-22T09:34:36.357Z,100781.35
2023-05-22T09:35:39.704Z,100779.63
2023-05-22T09:36:42.928Z,100781.30
2023-05-22T09:37:45.957Z,100780.97
2023-05-22T09:38:49.295Z,100780.25
2023-05-22T09:39:54.590Z,100780.02
2023-05-22T09:40:57.703Z,100780.09
2023-05-22T09:42:01.640Z,100777.23
2023-05-22T09:43:18.049Z,100775.65
2023-05-22T09:44:25.749Z,100775.23
2023-05-22T09:45:28.811Z,100773.80
2023-05-22T09:46:38.955Z,100775.10
2023-05-22T09:47:42.259Z,100782.20
2023-05-22T09:48:51.854Z,100777.75
2023-05-22T09:49:58.678Z,100773.31
2023-05-22T09:51:03.612Z,100778.88
2023-05-22T09:52:09.379Z,100776.01
2023-05-22T09:53:14.390Z,100771.90
2023-05-22T09:54:20.207Z,100772.19
2023-05-22T09:55:23.983Z,100776.55
2023-05-22T09:56:39.199Z,100772.18
2023-05-22T09:57:46.794Z,100769.30
2023-05-22T09:58:52.650Z,100770.13
2023-05-22T09:59:58.566Z,100768.84
2023-05-22T10:01:03.410Z,100779.73
2023-05-22T10:02:07.030Z,100773.48
2023-05-22T10:03:16.030Z,100768.02
2023-05-22T10:04:22.022Z,100764.73
2023-05-22T10:05:31.580Z,100763.02
2023-05-22T10:06:37.219Z,100763.88
2023-05-22T10:07:49.987Z,100767.45
2023-05-22T10:09:05.512Z,100770.68
2023-05-22T10:10:12.246Z,100770.98
2023-05-22T10:11:18.021Z,100772.02
2023-05-22T10:12:25.292Z,100768.59
2023-05-22T10:13:29.340Z,100768.38
2023-05-22T10:14:32.840Z,100768.40
2023-05-22T10:15:35.966Z,100768.58
2023-05-22T10:16:39.892Z,100764.95
2023-05-22T10:17:44.846Z,100763.85
2023-05-22T10:18:49.205Z,100761.33
2023-05-22T10:19:54.320Z,100770.74
2023-05-22T10:20:59.778Z,100764.34
2023-05-22T10:22:03.958Z,100767.41
2023-05-22T10:23:08.206Z,100764.85
2023-05-22T10:24:12.548Z,100761.00
2023-05-22T10:25:23.805Z,100764.14
2023-05-22T10:26:27.490Z,100763.80
2023-05-22T10:27:30.530Z,100763.69
2023-05-22T10:28:40.808Z,100762.98
2023-05-22T10:30:04.037Z,100762.20
2023-05-22T10:31:23.964Z,100759.56
2023-05-22T10:33:06.288Z,100757.66
2023-05-22T10:34:17.287Z,100759.80
2023-05-22T10:35:25.398Z,100755.98
2023-05-22T10:36:48.221Z,100761.67
2023-05-22T10:37:55.064Z,100761.51
2023-05-22T10:39:23.311Z,100754.95
2023-05-22T10:40:32.765Z,100749.13
2023-05-22T10:41:35.815Z,100745.52
2023-05-22T10:42:38.969Z,100752.23
2023-05-22T10:43:45.392Z,100745.21
2023-05-22T10:44:49.152Z,100749.29
2023-05-22T10:46:05.677Z,100749.66
2023-05-22T10:47:11.551Z,100749.52
2023-05-22T10:48:16.094Z,100749.77
2023-05-22T10:49:26.234Z,100747.85
2023-05-22T10:50:29.390Z,100751.83
2023-05-22T10:51:34.384Z,100745.39
2023-05-22T10:52:38.433Z,100743.79
2023-05-22T10:53:45.296Z,100741.66
2023-05-22T10:54:53.778Z,100745.06
2023-05-22T10:55:57.949Z,100739.37
2023-05-22T10:57:17.529Z,100742.95
2023-05-22T10:58:37.542Z,100739.87
2023-05-22T10:59:40.617Z,100733.77
2023-05-22T11:00:44.620Z,100731.55
2023-05-22T11:01:47.570Z,100731.33
2023-05-22T11:03:17.162Z,100736.79
2023-05-22T11:04:25.880Z,100733.86
2023-05-22T11:05:30.209Z,100734.25
2023-05-22T11:06:43.246Z,100732.38
2023-05-22T11:07:46.223Z,100731.69
2023-05-22T11:08:49.925Z,100733.49
2023-05-22T11:10:00.506Z,100733.08
2023-05-22T11:11:12.833Z,100737.02
2023-05-22T11:12:31.234Z,100727.29
2023-05-22T11:13:36.948Z,100732.83
2023-05-22T11:14:39.976Z,100735.67
2023-05-22T11:15:46.117Z,100736.88
2023-05-22T11:16:49.120Z,100735.55
2023-05-22T11:17:52.399Z,100729.58
2023-05-22T11:19:21.857Z,100727.37
2023-05-22T11:20:26.794Z,100729.76
2023-05-22T11:21:31.198Z,100725.15
2023-05-22T11:22:37.837Z,100719.94
2023-05-22T11:23:41.732Z,100713.39
2023-05-22T11:24:44.949Z,100714.81
2023-05-22T11:25:47.868Z,100714.01
2023-05-22T11:27:20.838Z,100712.07
2023-05-22T11:28:24.364Z,100711.40
2023-05-22T11:29:29.446Z,100715.27
2023-05-22T11:30:33.918Z,100709.51
2023-05-22T11:31:37.880Z,100709.70
2023-05-22T11:32:46.010Z,100710.22
2023-05-22T11:33:49.221Z,100702.92
2023-05-22T11:34:53.386Z,100700.59
2023-05-22T11:35:57.343Z,100703.17
2023-05-22T11:37:00.303Z,100695.48
2023-05-22T11:38:07.275Z,100697.35
2023-05-22T11:39:15.024Z,100697.02
2023-05-22T11:40:24.628Z,100701.13
2023-05-22T11:41:33.936Z,100701.48
2023-05-22T11:42:37.854Z,100702.42
2023-05-22T11:43:43.209Z,100701.32
2023-05-22T11:44:46.355Z,100704.94
2023-05-22T11:45:49.368Z,100703.67
2023-05-22T11:46:52.685Z,100705.15
2023-05-22T11:47:56.013Z,100702.13
2023-05-22T11:48:59.246Z,100698.45
2023-05-22T11:50:02.396Z,100697.56
2023-05-22T11:51:05.497Z,100698.02
2023-05-22T11:52:12.118Z,100700.83
2023-05-22T11:53:15.092Z,100695.50
2023-05-22T11:54:18.767Z,100692.13
2023-05-22T11:55:23.438Z,100689.21
2023-05-22T11:56:26.543Z,100687.66
2023-05-22T11:57:29.557Z,100684.70
2023-05-22T11:58:33.405Z,100691.84
2023-05-22T11:59:36.386Z,100689.67
2023-05-22T12:00:39.950Z,100696.23
2023-05-22T12:01:43.175Z,100701.34
2023-05-22T12:02:49.351Z,100695.98
2023-05-22T12:03:52.440Z,100691.84
2023-05-22T12:04:56.442Z,100691.73
2023-05-22T12:05:59.480Z,100695.39
2023-05-22T12:07:02.503Z,100692.92
2023-05-22T12:08:05.679Z,100686.04
2023-05-22T12:09:09.166Z,100685.27
2023-05-22T12:10:14.674Z,100686.70
2023-05-22T12:11:18.017Z,100682.58
2023-05-22T12:12:22.470Z,100683.10
2023-05-22T12:13:30.058Z,100683.70
2023-05-22T12:14:32.997Z,100681.45
2023-05-22T12:15:35.872Z,100682.28
2023-05-22T12:16:39.500Z,100681.51
2023-05-22T12:17:43.133Z,100678.27
2023-05-22T12:18:46.356Z,100677.80
2023-05-22T12:19:49.313Z,100674.58
2023-05-22T12:20:54.897Z,100676.67
2023-05-22T12:21:58.939Z,100675.04
2023-05-22T12:23:01.962Z,100674.68
2023-05-22T12:24:06.635Z,100675.98
2023-05-22T12:25:15.225Z,100674.56
2023-05-22T12:26:20.317Z,100671.21
2023-05-22T12:27:23.266Z,100669.13
2023-05-22T12:28:27.292Z,100670.49
2023-05-22T12:29:30.242Z,100669.16
2023-05-22T12:30:42.712Z,100666.83
2023-05-22T12:31:49.194Z,100662.63
2023-05-22T12:32:52.246Z,100662.17